createdAt,value
2023-04-18T00:02:02.775Z,102865.94
2023-04-18T00:04:29.302Z,102863.31
2023-04-18T00:06:55.753Z,102866.72
2023-04-18T00:09:22.165Z,102861.47
2023-04-18T00:11:48.691Z,102862.34
2023-04-18T00:14:15.198Z,102865.84
2023-04-18T00:16:42.265Z,102863.19
2023-04-18T00:19:09.500Z,102864.03
2023-04-18T00:21:37.117Z,102865.78
2023-04-18T00:24:03.560Z,102869.25
2023-04-18T00:26:29.953Z,102862.28
2023-04-18T00:28:57.362Z,102863.09
2023-04-18T00:31:23.844Z,102861.28
2023-04-18T00:33:50.655Z,102862.97
2023-04-18T00:36:17.119Z,102860.34
2023-04-18T00:38:44.786Z,102861.09
2023-04-18T00:41:11.142Z,102865.50
2023-04-18T00:43:44.859Z,102855.97
2023-04-18T00:46:11.273Z,102862.94
2023-04-18T00:48:39.077Z,102864.66
2023-04-18T00:51:07.476Z,102865.50
2023-04-18T00:53:33.851Z,102854.19
2023-04-18T00:56:00.240Z,102858.53
2023-04-18T00:58:26.670Z,102859.41
2023-04-18T01:00:54.588Z,102868.13
2023-04-18T01:03:22.844Z,102855.84
2023-04-18T01:05:49.586Z,102857.59
2023-04-18T01:08:18.397Z,102849.75
2023-04-18T01:10:45.105Z,102854.97
2023-04-18T01:13:20.110Z,102854.97
2023-04-18T01:15:48.837Z,102857.50
2023-04-18T01:18:19.062Z,102851.41
2023-04-18T01:20:48.416Z,102855.75
2023-04-18T01:23:16.340Z,102858.38
2023-04-18T01:25:43.360Z,102857.47
2023-04-18T01:28:10.237Z,102861.81
2023-04-18T01:30:36.812Z,102856.53
2023-04-18T01:33:05.090Z,102870.47
2023-04-18T01:35:32.903Z,102866.13
2023-04-18T01:38:00.214Z,102868.69
2023-04-18T01:40:27.535Z,102873.03
2023-04-18T01:42:53.990Z,102867.81
2023-04-18T01:45:20.535Z,102866.94
2023-04-18T01:47:47.041Z,102870.41
2023-04-18T01:50:17.402Z,102858.19
2023-04-18T01:52:43.859Z,102860.78
2023-04-18T01:55:10.566Z,102857.31
2023-04-18T01:57:38.334Z,102863.47
2023-04-18T02:00:06.189Z,102865.19
2023-04-18T02:02:41.079Z,102860.88
2023-04-18T02:05:07.994Z,102851.31
2023-04-18T02:07:37.728Z,102850.44
2023-04-18T02:10:05.217Z,102853.03
2023-04-18T02:12:31.993Z,102846.88
2023-04-18T02:14:59.352Z,102852.91
2023-04-18T02:17:25.804Z,102851.09
2023-04-18T02:19:54.230Z,102851.94
2023-04-18T02:22:20.605Z,102854.50
2023-04-18T02:24:47.986Z,102861.44
2023-04-18T02:27:15.003Z,102851.81
2023-04-18T02:29:41.428Z,102861.38
2023-04-18T02:32:08.204Z,102861.31
2023-04-18T02:34:36.168Z,102861.28
2023-04-18T02:37:02.586Z,102863.03
2023-04-18T02:39:29.016Z,102851.63
2023-04-18T02:41:55.537Z,102855.88
2023-04-18T02:44:24.257Z,102855.84
2023-04-18T02:46:54.513Z,102850.53
2023-04-18T02:49:20.938Z,102855.75
2023-04-18T02:51:47.652Z,102856.69
2023-04-18T02:54:20.563Z,102854.03
2023-04-18T02:56:54.673Z,102856.72
2023-04-18T02:59:43.975Z,102864.50
2023-04-18T03:02:29.666Z,102856.63
2023-04-18T03:05:02.238Z,102856.50
2023-04-18T03:07:28.710Z,102864.22
2023-04-18T03:09:55.710Z,102867.69
2023-04-18T03:12:26.589Z,102866.81
2023-04-18T03:14:53.672Z,102870.28
2023-04-18T03:17:20.864Z,102872.03
2023-04-18T03:19:48.853Z,102871.97
2023-04-18T03:22:17.907Z,102878.84
2023-04-18T03:24:51.490Z,102877.06
2023-04-18T03:27:19.221Z,102881.44
2023-04-18T03:29:46.862Z,102877.00
2023-04-18T03:32:13.772Z,102878.75
2023-04-18T03:34:40.131Z,102880.44
2023-04-18T03:37:08.129Z,102885.66
2023-04-18T03:39:40.589Z,102883.03
2023-04-18T03:42:07.167Z,102882.19
2023-04-18T03:44:34.506Z,102885.75
2023-04-18T03:47:00.971Z,102895.25
2023-04-18T03:49:29.433Z,102896.97
2023-04-18T03:51:55.871Z,102888.16
2023-04-18T03:54:24.170Z,102895.03
2023-04-18T03:56:50.659Z,102901.97
2023-04-18T03:59:17.666Z,102899.38
2023-04-18T04:01:47.974Z,102901.13
2023-04-18T04:04:15.293Z,102893.34
2023-04-18T04:06:43.561Z,102896.78
2023-04-18T04:09:09.985Z,102896.84
2023-04-18T04:11:36.530Z,102905.53
2023-04-18T04:14:05.618Z,102906.38
2023-04-18T04:16:38.127Z,102907.28
2023-04-18T04:19:06.274Z,102910.72
2023-04-18T04:21:38.955Z,102915.91
2023-04-18T04:24:08.307Z,102913.31
2023-04-18T04:26:39.261Z,102910.69
2023-04-18T04:29:16.236Z,102908.88
2023-04-18T04:31:44.312Z,102914.03
2023-04-18T04:34:10.668Z,102912.34
2023-04-18T04:36:37.652Z,102919.25
2023-04-18T04:39:05.851Z,102920.94
2023-04-18T04:41:49.361Z,102929.66
2023-04-18T04:44:18.366Z,102928.81
2023-04-18T04:46:44.875Z,102928.91
2023-04-18T04:49:17.930Z,102929.78
2023-04-18T04:51:44.335Z,102931.53
2023-04-18T04:54:10.725Z,102933.28
2023-04-18T04:56:37.093Z,102936.66
2023-04-18T04:59:04.520Z,102929.69
2023-04-18T05:01:35.446Z,102932.31
2023-04-18T05:04:01.998Z,102941.00
2023-04-18T05:06:28.639Z,102933.16
2023-04-18T05:08:56.659Z,102931.44
2023-04-18T05:11:23.141Z,102941.91
2023-04-18T05:13:49.508Z,102937.50
2023-04-18T05:16:15.895Z,102940.97
2023-04-18T05:18:42.311Z,102940.13
2023-04-18T05:21:08.848Z,102939.25
2023-04-18T05:23:36.929Z,102947.13
2023-04-18T05:26:04.791Z,102951.50
2023-04-18T05:28:31.410Z,102941.91
2023-04-18T05:31:01.187Z,102949.72
2023-04-18T05:33:31.639Z,102954.97
2023-04-18T05:35:58.823Z,102953.16
2023-04-18T05:38:25.478Z,102946.31
2023-04-18T05:40:51.924Z,102953.22
2023-04-18T05:43:19.360Z,102949.78
2023-04-18T05:45:46.118Z,102941.97
2023-04-18T05:48:12.510Z,102945.44
2023-04-18T05:50:39.009Z,102946.34
2023-04-18T05:53:05.561Z,102951.56
2023-04-18T05:55:32.440Z,102955.00
2023-04-18T05:57:58.835Z,102955.97
2023-04-18T06:00:25.213Z,102955.91
2023-04-18T06:02:51.686Z,102955.97
2023-04-18T06:05:18.361Z,102967.34
2023-04-18T06:07:45.080Z,102962.19
2023-04-18T06:10:13.310Z,102970.06
2023-04-18T06:12:40.423Z,102960.53
2023-04-18T06:15:07.414Z,102966.72
2023-04-18T06:17:34.845Z,102971.09
2023-04-18T06:20:01.814Z,102971.16
2023-04-18T06:22:28.201Z,102969.50
2023-04-18T06:24:55.813Z,102971.34
2023-04-18T06:27:30.575Z,102974.19
2023-04-18T06:29:58.135Z,102981.38
2023-04-18T06:32:24.544Z,102981.56
2023-04-18T06:34:51.096Z,102971.31
2023-04-18T06:37:17.634Z,102975.81
2023-04-18T06:39:44.033Z,102965.47
2023-04-18T06:42:10.405Z,102965.44
2023-04-18T06:44:43.952Z,102964.72
2023-04-18T06:47:11.033Z,102972.63
2023-04-18T06:49:37.470Z,102973.56
2023-04-18T06:52:03.848Z,102973.66
2023-04-18T06:54:30.216Z,102970.25
2023-04-18T06:56:57.161Z,102972.06
2023-04-18T06:59:23.546Z,102982.53
2023-04-18T07:01:51.367Z,102984.41
2023-04-18T07:04:18.148Z,102984.50
2023-04-18T07:06:44.993Z,102981.03
2023-04-18T07:09:11.395Z,102989.75
2023-04-18T07:11:39.085Z,102985.50
2023-04-18T07:14:05.511Z,102986.44
2023-04-18T07:16:31.989Z,102984.78
2023-04-18T07:18:58.410Z,102983.09
2023-04-18T07:21:24.799Z,102987.47
2023-04-18T07:23:51.304Z,102983.13
2023-04-18T07:26:17.678Z,102987.56
2023-04-18T07:28:44.041Z,102986.81
2023-04-18T07:31:11.247Z,102978.16
2023-04-18T07:33:38.611Z,102973.81
2023-04-18T07:36:06.034Z,102972.81
2023-04-18T07:38:35.103Z,102965.84
2023-04-18T07:41:03.212Z,102971.84
2023-04-18T07:43:29.681Z,102974.56
2023-04-18T07:45:56.159Z,102973.72
2023-04-18T07:48:22.796Z,102975.56
2023-04-18T07:50:49.461Z,102968.63
2023-04-18T07:53:15.935Z,102972.94
2023-04-18T07:55:43.222Z,102964.22
2023-04-18T07:58:10.065Z,102973.88
2023-04-18T08:00:38.704Z,102965.19
2023-04-18T08:03:07.561Z,102968.72
2023-04-18T08:05:34.149Z,102967.94
2023-04-18T08:08:00.650Z,102972.25
2023-04-18T08:10:27.084Z,102964.47
2023-04-18T08:12:53.477Z,102970.63
2023-04-18T08:15:19.895Z,102978.47
2023-04-18T08:17:48.906Z,102956.63
2023-04-18T08:20:15.474Z,102958.25
2023-04-18T08:22:57.425Z,102957.16
2023-04-18T08:25:28.258Z,102956.22
2023-04-18T08:27:55.228Z,102968.38
2023-04-18T08:30:21.646Z,102977.97
2023-04-18T08:32:48.999Z,102975.41
2023-04-18T08:35:15.994Z,102983.25
2023-04-18T08:37:43.167Z,102973.75
2023-04-18T08:40:09.586Z,102983.41
2023-04-18T08:42:38.212Z,102980.84
2023-04-18T08:45:06.827Z,102983.59
2023-04-18T08:47:35.082Z,102982.66
2023-04-18T08:50:01.644Z,102983.59
2023-04-18T08:52:30.728Z,102982.78
2023-04-18T08:54:57.348Z,102975.97
2023-04-18T08:57:26.854Z,102967.28
2023-04-18T08:59:54.263Z,102983.88
2023-04-18T09:02:23.960Z,102972.56
2023-04-18T09:04:53.467Z,102972.59
2023-04-18T09:07:28.368Z,102983.22
2023-04-18T09:09:57.377Z,102977.03
2023-04-18T09:12:26.331Z,102985.75
2023-04-18T09:14:57.573Z,102987.59
2023-04-18T09:17:34.930Z,102978.06
2023-04-18T09:20:05.024Z,102979.81
2023-04-18T09:22:48.517Z,102984.13
2023-04-18T09:25:30.130Z,102989.28
2023-04-18T09:28:00.768Z,102987.41
2023-04-18T09:30:39.212Z,102982.03
2023-04-18T09:33:09.343Z,102991.66
2023-04-18T09:35:37.571Z,102988.16
2023-04-18T09:38:05.493Z,102989.88
2023-04-18T09:40:32.962Z,102991.63
2023-04-18T09:42:59.846Z,102989.88
2023-04-18T09:45:26.835Z,102995.84
2023-04-18T09:47:53.864Z,102992.38
2023-04-18T09:50:20.884Z,102992.53
2023-04-18T09:52:48.300Z,102989.97
2023-04-18T09:55:17.420Z,103003.13
2023-04-18T09:57:47.947Z,102991.72
2023-04-18T10:00:26.311Z,102992.53
2023-04-18T10:03:04.929Z,102993.47
2023-04-18T10:05:34.077Z,102995.28
2023-04-18T10:08:00.949Z,102991.88
2023-04-18T10:10:28.303Z,102989.28
2023-04-18T10:12:56.638Z,102994.53
2023-04-18T10:15:25.311Z,102986.66
2023-04-18T10:18:05.684Z,102990.16
2023-04-18T10:20:34.866Z,102988.38
2023-04-18T10:23:40.056Z,102986.63
2023-04-18T10:26:11.128Z,102979.72
2023-04-18T10:28:54.579Z,102977.16
2023-04-18T10:31:23.339Z,102976.34
2023-04-18T10:34:17.679Z,102973.75
2023-04-18T10:37:03.931Z,102976.41
2023-04-18T10:39:30.356Z,102976.38
2023-04-18T10:41:56.725Z,102970.28
2023-04-18T10:44:23.737Z,102973.78
2023-04-18T10:46:50.449Z,102970.28
2023-04-18T10:49:31.172Z,102970.25
2023-04-18T10:52:00.633Z,102972.00
2023-04-18T10:54:36.908Z,102974.66
2023-04-18T10:57:04.606Z,102970.25
2023-04-18T10:59:32.939Z,102977.25
2023-04-18T11:02:20.706Z,102969.38
2023-04-18T11:04:54.012Z,102977.22
2023-04-18T11:07:38.765Z,102979.81
2023-04-18T11:10:06.464Z,102985.03
2023-04-18T11:12:35.799Z,102985.03
2023-04-18T11:15:09.341Z,102985.00
2023-04-18T11:17:39.713Z,102980.66
2023-04-18T11:20:13.001Z,102978.97
2023-04-18T11:22:52.129Z,102972.03
2023-04-18T11:25:23.590Z,102973.75
2023-04-18T11:27:57.011Z,102968.50
2023-04-18T11:30:23.494Z,102962.38
2023-04-18T11:32:49.965Z,102969.38
2023-04-18T11:35:16.467Z,102965.03
2023-04-18T11:37:45.502Z,102968.50
2023-04-18T11:40:13.926Z,102966.75
2023-04-18T11:42:41.429Z,102973.75
2023-04-18T11:45:14.748Z,102968.50
2023-04-18T11:47:43.017Z,102969.38
2023-04-18T11:50:11.525Z,102974.63
2023-04-18T11:52:40.979Z,102968.50
2023-04-18T11:55:18.350Z,102971.97
2023-04-18T11:57:55.357Z,102962.31
2023-04-18T12:00:38.396Z,102965.84
2023-04-18T12:03:12.671Z,102963.09
2023-04-18T12:05:41.005Z,102956.91
2023-04-18T12:08:14.153Z,102960.38
2023-04-18T12:10:51.671Z,102962.94
2023-04-18T12:13:19.077Z,102960.16
2023-04-18T12:15:46.756Z,102957.13
2023-04-18T12:18:15.184Z,102970.88
2023-04-18T12:20:53.961Z,102957.06
2023-04-18T12:23:39.685Z,102951.34
2023-04-18T12:26:08.267Z,102947.72
2023-04-18T12:28:35.363Z,102943.81
2023-04-18T12:31:02.163Z,102938.31
2023-04-18T12:33:28.662Z,102940.28
2023-04-18T12:35:55.954Z,102938.84
2023-04-18T12:38:23.461Z,102945.16
2023-04-18T12:40:51.177Z,102954.44
2023-04-18T12:43:18.492Z,102941.75
2023-04-18T12:45:47.820Z,102941.56
2023-04-18T12:48:14.181Z,102944.22
2023-04-18T12:50:40.787Z,102939.75
2023-04-18T12:53:07.296Z,102940.00
2023-04-18T12:55:33.860Z,102942.94
2023-04-18T12:58:00.581Z,102935.56
2023-04-18T13:00:29.954Z,102940.28
2023-04-18T13:02:56.904Z,102935.22
2023-04-18T13:05:27.010Z,102935.09
2023-04-18T13:08:04.779Z,102924.19
2023-04-18T13:10:39.515Z,102919.31
2023-04-18T13:13:06.035Z,102921.72
2023-04-18T13:15:32.447Z,102910.91
2023-04-18T13:18:04.237Z,102918.31
2023-04-18T13:20:30.819Z,102904.78
2023-04-18T13:22:57.210Z,102903.34
2023-04-18T13:25:23.781Z,102905.00
2023-04-18T13:27:50.321Z,102907.81
2023-04-18T13:30:16.701Z,102893.59
2023-04-18T13:32:43.924Z,102888.31
2023-04-18T13:35:11.126Z,102909.34
2023-04-18T13:37:38.062Z,102900.75
2023-04-18T13:40:06.386Z,102915.50
2023-04-18T13:42:37.439Z,102914.66
2023-04-18T13:45:04.430Z,102922.47
2023-04-18T13:47:30.918Z,102920.88
2023-04-18T13:49:57.839Z,102916.16
2023-04-18T13:52:26.400Z,102915.63
2023-04-18T13:54:55.104Z,102914.97
2023-04-18T13:57:21.939Z,102917.97
2023-04-18T13:59:48.816Z,102913.94
2023-04-18T14:02:15.304Z,102908.84
2023-04-18T14:04:41.975Z,102914.50
2023-04-18T14:07:08.985Z,102919.41
2023-04-18T14:09:35.370Z,102912.59
2023-04-18T14:12:02.005Z,102919.75
2023-04-18T14:14:28.586Z,102920.69
2023-04-18T14:16:55.037Z,102916.34
2023-04-18T14:19:21.574Z,102919.75
2023-04-18T14:21:48.457Z,102915.28
2023-04-18T14:24:15.009Z,102920.44
2023-04-18T14:26:41.467Z,102917.63
2023-04-18T14:29:07.831Z,102917.50
2023-04-18T14:31:34.252Z,102914.88
2023-04-18T14:34:00.643Z,102913.25
2023-04-18T14:36:27.586Z,102920.44
2023-04-18T14:38:54.737Z,102918.00
2023-04-18T14:41:21.305Z,102912.81
2023-04-18T14:43:47.891Z,102911.06
2023-04-18T14:46:16.638Z,102911.00
2023-04-18T14:48:47.138Z,102911.97
2023-04-18T14:51:15.801Z,102909.28
2023-04-18T14:53:42.428Z,102913.69
2023-04-18T14:56:08.807Z,102911.09
2023-04-18T14:58:35.211Z,102921.56
2023-04-18T15:01:01.666Z,102912.00
2023-04-18T15:03:28.188Z,102908.53
2023-04-18T15:05:54.959Z,102916.34
2023-04-18T15:08:21.336Z,102912.81
2023-04-18T15:10:47.686Z,102912.72
2023-04-18T15:13:14.255Z,102908.31
2023-04-18T15:15:40.936Z,102910.97
2023-04-18T15:18:08.326Z,102910.09
2023-04-18T15:20:36.862Z,102907.53
2023-04-18T15:23:03.323Z,102906.66
2023-04-18T15:25:30.507Z,102903.25
2023-04-18T15:27:58.102Z,102900.69
2023-04-18T15:30:24.894Z,102907.75
2023-04-18T15:32:52.174Z,102907.81
2023-04-18T15:35:18.827Z,102912.19
2023-04-18T15:37:45.325Z,102917.47
2023-04-18T15:40:16.037Z,102914.84
2023-04-18T15:42:43.470Z,102912.19
2023-04-18T15:45:11.071Z,102911.28
2023-04-18T15:47:38.660Z,102906.00
2023-04-18T15:50:05.736Z,102908.72
2023-04-18T15:52:32.126Z,102906.97
2023-04-18T15:54:58.780Z,102904.44
2023-04-18T15:57:25.208Z,102909.75
2023-04-18T15:59:51.577Z,102907.19
2023-04-18T16:02:18.064Z,102916.81
2023-04-18T16:04:44.641Z,102910.72
2023-04-18T16:07:11.548Z,102915.13
2023-04-18T16:09:37.956Z,102909.88
2023-04-18T16:12:04.666Z,102913.38
2023-04-18T16:14:31.265Z,102916.00
2023-04-18T16:16:58.936Z,102916.03
2023-04-18T16:19:25.338Z,102915.16
2023-04-18T16:21:52.150Z,102918.66
2023-04-18T16:24:18.832Z,102922.13
2023-04-18T16:26:45.216Z,102911.66
2023-04-18T16:29:11.615Z,102917.78
2023-04-18T16:31:38.256Z,102912.53
2023-04-18T16:34:04.706Z,102917.78
2023-04-18T16:36:34.365Z,102915.16
2023-04-18T16:39:00.764Z,102924.78
2023-04-18T16:41:27.544Z,102914.31
2023-04-18T16:43:53.917Z,102915.19
2023-04-18T16:46:20.334Z,102918.66
2023-04-18T16:48:46.755Z,102923.91
2023-04-18T16:51:13.214Z,102917.78
2023-04-18T16:53:39.812Z,102923.03
2023-04-18T16:56:07.811Z,102920.41
2023-04-18T16:58:34.359Z,102926.53
2023-04-18T17:01:03.642Z,102930.88
2023-04-18T17:03:30.085Z,102930.91
2023-04-18T17:05:56.599Z,102934.41
2023-04-18T17:08:24.007Z,102928.28
2023-04-18T17:10:51.817Z,102932.66
2023-04-18T17:13:19.334Z,102930.91
2023-04-18T17:15:45.996Z,102932.66
2023-04-18T17:18:12.486Z,102937.91
2023-04-18T17:20:38.920Z,102936.16
2023-04-18T17:23:05.348Z,102937.88
2023-04-18T17:25:31.803Z,102937.88
2023-04-18T17:28:02.837Z,102943.06
2023-04-18T17:30:29.635Z,102943.97
2023-04-18T17:32:56.060Z,102946.59
2023-04-18T17:35:22.547Z,102950.09
2023-04-18T17:37:49.612Z,102945.72
2023-04-18T17:40:15.977Z,102949.25
2023-04-18T17:42:42.487Z,102951.84
2023-04-18T17:45:09.782Z,102952.72
2023-04-18T17:47:36.655Z,102957.09
2023-04-18T17:50:06.999Z,102964.06
2023-04-18T17:52:33.452Z,102956.22
2023-04-18T17:55:01.741Z,102957.09
2023-04-18T17:57:30.297Z,102964.13
2023-04-18T17:59:56.696Z,102964.97
2023-04-18T18:02:28.047Z,102966.69
2023-04-18T18:04:54.485Z,102964.06
2023-04-18T18:07:20.880Z,102966.69
2023-04-18T18:09:47.231Z,102964.06
2023-04-18T18:12:13.650Z,102971.91
2023-04-18T18:14:43.032Z,102972.78
2023-04-18T18:17:09.516Z,102975.41
2023-04-18T18:19:38.694Z,102977.13
2023-04-18T18:22:05.156Z,102978.88
2023-04-18T18:24:31.538Z,102987.59
2023-04-18T18:26:58.818Z,102984.06
2023-04-18T18:29:25.323Z,102984.91
2023-04-18T18:31:51.769Z,102991.00
2023-04-18T18:34:19.744Z,102991.84
2023-04-18T18:36:46.336Z,103002.28
2023-04-18T18:39:14.502Z,103005.72
2023-04-18T18:41:41.047Z,103004.84
2023-04-18T18:44:07.421Z,103007.47
2023-04-18T18:46:33.982Z,103001.31
2023-04-18T18:49:00.450Z,103006.50
2023-04-18T18:51:27.826Z,103016.09
2023-04-18T18:53:55.120Z,103015.22
2023-04-18T18:56:21.472Z,103019.59
2023-04-18T18:58:47.946Z,103016.09
2023-04-18T19:01:14.414Z,103027.41
2023-04-18T19:03:41.006Z,103023.91
2023-04-18T19:06:08.347Z,103024.72
2023-04-18T19:08:35.041Z,103025.63
2023-04-18T19:11:01.426Z,103033.44
2023-04-18T19:13:27.842Z,103028.19
2023-04-18T19:15:54.223Z,103037.78
2023-04-18T19:18:21.231Z,103028.19
2023-04-18T19:20:52.106Z,103036.03
2023-04-18T19:23:19.284Z,103028.16
2023-04-18T19:25:46.552Z,103034.25
2023-04-18T19:28:14.254Z,103040.38
2023-04-18T19:30:42.163Z,103035.13
2023-04-18T19:33:08.736Z,103029.03
2023-04-18T19:35:37.789Z,103033.38
2023-04-18T19:38:04.388Z,103035.94
2023-04-18T19:40:30.809Z,103034.19
2023-04-18T19:42:57.864Z,103038.53
2023-04-18T19:45:24.420Z,103028.94
2023-04-18T19:47:50.921Z,103030.69
2023-04-18T19:50:17.412Z,103028.94
2023-04-18T19:52:43.757Z,103036.72
2023-04-18T19:55:10.242Z,103028.88
2023-04-18T19:57:41.146Z,103028.81
2023-04-18T20:00:12.496Z,103032.25
2023-04-18T20:02:40.644Z,103029.59
2023-04-18T20:05:08.590Z,103028.69
2023-04-18T20:07:35.770Z,103038.25
2023-04-18T20:10:02.233Z,103038.25
2023-04-18T20:12:28.794Z,103039.13
2023-04-18T20:14:55.833Z,103039.91
2023-04-18T20:17:22.287Z,103035.47
2023-04-18T20:19:49.699Z,103044.19
2023-04-18T20:22:16.691Z,103044.16
2023-04-18T20:24:44.865Z,103037.13
2023-04-18T20:27:11.580Z,103045.78
2023-04-18T20:29:38.046Z,103048.47
2023-04-18T20:32:04.667Z,103058.94
2023-04-18T20:34:31.400Z,103054.53
2023-04-18T20:36:58.624Z,103057.97
2023-04-18T20:39:25.156Z,103060.66
2023-04-18T20:41:52.311Z,103058.91
2023-04-18T20:44:21.882Z,103058.84
2023-04-18T20:46:48.303Z,103056.22
2023-04-18T20:49:14.796Z,103060.50
2023-04-18T20:51:41.282Z,103063.09
2023-04-18T20:54:07.643Z,103071.81
2023-04-18T20:56:36.333Z,103069.16
2023-04-18T20:59:04.458Z,103066.56
2023-04-18T21:01:31.347Z,103069.09
2023-04-18T21:03:58.048Z,103072.59
2023-04-18T21:06:24.603Z,103069.97
2023-04-18T21:08:51.029Z,103084.75
2023-04-18T21:11:17.418Z,103089.91
2023-04-18T21:13:43.776Z,103086.38
2023-04-18T21:16:10.599Z,103095.00
2023-04-18T21:18:37.125Z,103099.38
2023-04-18T21:21:04.478Z,103093.19
2023-04-18T21:23:30.915Z,103099.22
2023-04-18T21:25:57.330Z,103100.94
2023-04-18T21:28:23.707Z,103100.88
2023-04-18T21:30:50.651Z,103100.84
2023-04-18T21:33:17.041Z,103103.44
2023-04-18T21:35:43.452Z,103092.97
2023-04-18T21:38:09.848Z,103097.25
2023-04-18T21:40:37.234Z,103093.72
2023-04-18T21:43:03.829Z,103095.47
2023-04-18T21:45:30.371Z,103086.69
2023-04-18T21:47:56.859Z,103094.50
2023-04-18T21:50:24.191Z,103085.81
2023-04-18T21:52:50.566Z,103096.22
2023-04-18T21:55:17.721Z,103092.75
2023-04-18T21:57:44.366Z,103090.13
2023-04-18T22:00:11.287Z,103092.69
2023-04-18T22:02:39.558Z,103096.16
2023-04-18T22:05:07.549Z,103083.06
2023-04-18T22:07:38.729Z,103080.44
2023-04-18T22:10:13.370Z,103091.78
2023-04-18T22:12:39.977Z,103090.88
2023-04-18T22:15:06.650Z,103089.06
2023-04-18T22:17:35.510Z,103079.44
2023-04-18T22:20:04.574Z,103092.50
2023-04-18T22:22:33.009Z,103089.84
2023-04-18T22:24:59.360Z,103096.75
2023-04-18T22:27:25.737Z,103095.00
2023-04-18T22:29:52.102Z,103080.19
2023-04-18T22:32:18.826Z,103082.81
2023-04-18T22:34:45.277Z,103079.25
2023-04-18T22:37:11.641Z,103082.78
2023-04-18T22:39:38.006Z,103072.31
2023-04-18T22:42:04.793Z,103078.31
2023-04-18T22:44:31.208Z,103083.53
2023-04-18T22:46:57.571Z,103082.56
2023-04-18T22:49:23.928Z,103088.63
2023-04-18T22:51:54.085Z,103077.31
2023-04-18T22:54:20.888Z,103077.31
2023-04-18T22:56:49.367Z,103072.84
2023-04-18T22:59:16.143Z,103085.00
2023-04-18T23:01:42.529Z,103076.22
2023-04-18T23:04:09.136Z,103082.34
2023-04-18T23:06:36.561Z,103083.19
2023-04-18T23:09:06.345Z,103085.78
2023-04-18T23:11:32.729Z,103083.16
2023-04-18T23:13:59.105Z,103074.47
2023-04-18T23:16:25.553Z,103072.72
2023-04-18T23:18:52.047Z,103076.19
2023-04-18T23:21:18.444Z,103074.41
2023-04-18T23:23:44.881Z,103070.97
2023-04-18T23:26:13.332Z,103068.28
2023-04-18T23:28:39.839Z,103064.78
2023-04-18T23:31:06.303Z,103064.75
2023-04-18T23:33:33.353Z,103068.22
2023-04-18T23:35:59.729Z,103069.09
2023-04-18T23:38:26.709Z,103069.06
2023-04-18T23:40:53.235Z,103067.34
2023-04-18T23:43:19.594Z,103074.22
2023-04-18T23:45:45.946Z,103066.38
2023-04-18T23:48:12.480Z,103061.13
2023-04-18T23:50:45.951Z,103064.53
2023-04-18T23:53:12.331Z,103062.78
2023-04-18T23:55:38.727Z,103061.88
2023-04-18T23:58:05.099Z,103056.66
